Columbiaville, Michigan
Current Conditions -  °F | °C
As of 3:14 PM on Friday 31 Oct 2014 (Local Time) from KD95 Reporting Station
Moderate Rain Moderate Rain  
Wind Chill: 27°   Ceiling: 1000
Heat Index: 37°   Visibility: 7mi
Dew Point: 36°   Wind: 18mph
Humidity: 93%   Direction: 10°N
Pressure: 29.94"   Gusts: 28mph
Location:  43.16°N, 83.41°W
Report Text: KD95 311914Z AUTO 01016G24KT 7SM RA OVC010 03/02 A2994 RMK AO2 P0001 T00300020
Loading
Personal Weather Stations






























Interactive Weather Map New forecast layout! Learn more

10-Day Weather Forecast

Advertisements
Track Severe Weather on mobile